Time;durP1;ratioP1;P1;durP2;ratioP2;P2;SDS_P1;SDS_P2;PMS_P1;PMS_P2;Temp;Humidity;BMP_temperature;BMP_pressure;BME280_temperature;BME280_humidity;BME280_pressure;Samples;Min_cycle;Max_cycle;Signal;HPM_P1;HPM_P2
2024/04/01 00:00:00;;;;;;;30.20;18.75;;;10.80;99.90;;;;;;5052437;28;20564;-79
2024/04/01 00:02:25;;;;;;;28.40;19.73;;;10.70;99.90;;;;;;5035992;28;20055;-78
2024/04/01 00:04:51;;;;;;;29.42;19.00;;;10.70;99.90;;;;;;5054826;28;20509;-79
2024/04/01 00:07:17;;;;;;;29.85;19.73;;;10.70;99.90;;;;;;5055063;28;20130;-79
2024/04/01 00:09:42;;;;;;;34.45;20.40;;;10.70;99.90;;;;;;5055103;28;20040;-79
2024/04/01 00:12:12;;;;;;;30.95;20.30;;;10.70;99.90;;;;;;5053827;28;20106;-78
2024/04/01 00:14:37;;;;;;;29.30;18.90;;;10.60;99.90;;;;;;5048768;28;20040;-79
2024/04/01 00:17:03;;;;;;;33.08;19.20;;;10.70;99.90;;;;;;5050018;28;20535;-79
2024/04/01 00:19:29;;;;;;;31.17;19.38;;;10.70;99.90;;;;;;5053801;28;20075;-79
2024/04/01 00:21:54;;;;;;;30.13;18.88;;;10.70;99.90;;;;;;5051060;28;20103;-78
2024/04/01 00:24:20;;;;;;;27.45;18.77;;;10.90;99.90;;;;;;5053332;28;20406;-78
2024/04/01 00:26:45;;;;;;;31.15;18.70;;;10.70;99.90;;;;;;5055353;28;20069;-79
2024/04/01 00:29:11;;;;;;;29.33;18.02;;;10.70;99.90;;;;;;5054168;28;20053;-79
2024/04/01 00:31:37;;;;;;;27.20;17.95;;;10.70;99.90;;;;;;5053329;28;20041;-78
2024/04/01 00:34:02;;;;;;;24.90;17.35;;;10.70;99.90;;;;;;5059128;28;20037;-78
2024/04/01 00:36:28;;;;;;;29.40;17.75;;;10.70;99.90;;;;;;5055381;28;20375;-78
2024/04/01 00:38:56;;;;;;;27.73;17.35;;;10.70;99.90;;;;;;5054507;28;20105;-79
2024/04/01 00:41:23;;;;;;;26.35;18.20;;;10.70;99.90;;;;;;5053484;28;20045;-80
2024/04/01 00:43:49;;;;;;;25.08;18.30;;;10.70;99.90;;;;;;5053635;28;20048;-78
2024/04/01 00:46:16;;;;;;;28.92;17.95;;;10.60;99.90;;;;;;5057870;28;20033;-78
2024/04/01 00:48:42;;;;;;;30.30;18.65;;;10.60;99.90;;;;;;5052823;28;20136;-79
2024/04/01 00:51:08;;;;;;;27.83;18.02;;;10.60;99.90;;;;;;5051767;28;20616;-78
2024/04/01 00:53:34;;;;;;;24.15;17.15;;;10.60;99.90;;;;;;5052773;28;20041;-79
2024/04/01 00:55:59;;;;;;;29.42;18.23;;;10.60;99.90;;;;;;5052553;28;20560;-78
2024/04/01 00:58:26;;;;;;;28.92;18.20;;;10.50;99.90;;;;;;5052018;28;20102;-78
2024/04/01 01:00:51;;;;;;;26.85;17.65;;;10.60;99.90;;;;;;5052824;28;20051;-78
2024/04/01 01:03:18;;;;;;;31.25;17.90;;;10.60;99.90;;;;;;5052830;28;20056;-78
2024/04/01 01:05:44;;;;;;;22.67;17.08;;;10.50;99.90;;;;;;5053113;28;20128;-78
2024/04/01 01:08:10;;;;;;;25.88;17.55;;;10.50;99.90;;;;;;5048966;28;20051;-78
2024/04/01 01:10:36;;;;;;;29.35;18.42;;;10.40;99.90;;;;;;5052746;28;20044;-79
2024/04/01 01:13:01;;;;;;;26.80;18.40;;;10.40;99.90;;;;;;5051997;28;20041;-80
2024/04/01 01:15:27;;;;;;;25.83;17.67;;;10.40;99.90;;;;;;5052091;28;20045;-79
2024/04/01 01:17:54;;;;;;;25.98;17.73;;;10.40;99.90;;;;;;5052245;28;20041;-78
2024/04/01 01:20:21;;;;;;;27.13;17.88;;;10.30;99.90;;;;;;5052758;28;20055;-79
2024/04/01 01:22:47;;;;;;;23.65;16.92;;;10.40;99.90;;;;;;5054193;28;20163;-79
2024/04/01 01:25:12;;;;;;;27.00;17.48;;;10.30;99.90;;;;;;5052595;28;20112;-79
2024/04/01 01:27:40;;;;;;;25.63;16.73;;;10.30;99.90;;;;;;5052823;28;20126;-79
2024/04/01 01:30:15;;;;;;;26.15;17.73;;;10.20;99.90;;;;;;5051425;28;20472;-79
2024/04/01 01:32:55;;;;;;;24.08;16.88;;;10.20;99.90;;;;;;5050500;28;20094;-79
2024/04/01 01:35:22;;;;;;;27.58;17.60;;;10.20;99.90;;;;;;5052572;28;20040;-79
2024/04/01 01:37:49;;;;;;;29.60;20.38;;;10.20;99.90;;;;;;5052196;28;20037;-79
2024/04/01 01:40:15;;;;;;;29.80;19.58;;;10.20;99.90;;;;;;5051116;28;20044;-79
2024/04/01 01:42:41;;;;;;;28.35;19.80;;;10.20;99.90;;;;;;5051487;28;20470;-79
2024/04/01 01:45:07;;;;;;;25.60;18.45;;;10.10;99.90;;;;;;5052199;28;20382;-79
2024/04/01 01:47:33;;;;;;;29.60;19.58;;;10.20;99.90;;;;;;5050798;28;20051;-79
2024/04/01 01:50:04;;;;;;;30.83;20.33;;;10.10;99.90;;;;;;5051136;28;20033;-79
2024/04/01 01:52:30;;;;;;;30.42;19.45;;;10.10;99.90;;;;;;5051811;28;20048;-79
2024/04/01 01:54:56;;;;;;;26.88;19.70;;;10.10;99.90;;;;;;5050597;28;20058;-78
2024/04/01 01:57:22;;;;;;;33.08;20.15;;;10.10;99.90;;;;;;5034549;28;20048;-79
2024/04/01 01:59:48;;;;;;;29.65;20.15;;;10.10;99.90;;;;;;5055537;28;20036;-79
2024/04/01 02:02:15;;;;;;;32.97;21.48;;;10.00;99.90;;;;;;5053227;28;20057;-79
2024/04/01 02:04:41;;;;;;;29.70;21.20;;;10.20;99.90;;;;;;5050905;28;20391;-78
2024/04/01 02:07:07;;;;;;;31.30;22.15;;;10.10;99.90;;;;;;5052348;28;20070;-79
2024/04/01 02:09:33;;;;;;;33.47;21.98;;;10.10;99.90;;;;;;5034483;28;20037;-79
2024/04/01 02:12:00;;;;;;;35.40;22.33;;;10.00;99.90;;;;;;5051604;28;20032;-78
2024/04/01 02:14:26;;;;;;;39.13;24.10;;;10.10;99.90;;;;;;5051302;28;20040;-78
2024/04/01 02:16:51;;;;;;;33.55;23.25;;;10.10;99.90;;;;;;5052617;28;20044;-78
2024/04/01 02:19:17;;;;;;;31.30;22.15;;;10.00;99.90;;;;;;5051084;28;20037;-79
2024/04/01 02:21:45;;;;;;;33.60;23.15;;;10.10;99.90;;;;;;5050213;28;20040;-78
2024/04/01 02:24:17;;;;;;;35.45;24.13;;;10.00;99.90;;;;;;5050684;28;20454;-78
2024/04/01 02:26:47;;;;;;;34.17;23.77;;;10.00;99.90;;;;;;5050803;28;20052;-79
2024/04/01 02:29:12;;;;;;;36.67;24.08;;;10.00;99.90;;;;;;5058580;28;20058;-78
2024/04/01 02:31:38;;;;;;;34.78;22.95;;;10.40;99.90;;;;;;5051076;28;20116;-79
2024/04/01 02:34:04;;;;;;;31.52;22.70;;;10.00;99.90;;;;;;5051327;28;21294;-79
2024/04/01 02:36:30;;;;;;;34.05;23.00;;;10.00;99.90;;;;;;5050552;28;20555;-78
2024/04/01 02:38:55;;;;;;;34.80;23.45;;;10.00;99.90;;;;;;5048514;28;20535;-78
2024/04/01 02:41:21;;;;;;;34.50;24.08;;;10.10;99.90;;;;;;5050331;28;20032;-79
2024/04/01 02:43:47;;;;;;;37.38;25.08;;;10.30;99.90;;;;;;5052548;28;20033;-79
2024/04/01 02:46:14;;;;;;;37.20;24.55;;;10.00;99.90;;;;;;5050236;28;20033;-79
2024/04/01 02:48:39;;;;;;;33.50;23.50;;;10.00;99.90;;;;;;5051505;28;20040;-79
2024/04/01 02:51:05;;;;;;;34.78;23.98;;;10.00;99.90;;;;;;5050466;28;20041;-78
2024/04/01 02:53:31;;;;;;;34.92;24.23;;;10.10;99.90;;;;;;5051976;28;20529;-78
2024/04/01 02:55:56;;;;;;;34.42;24.38;;;10.20;99.90;;;;;;5050586;28;20036;-78
2024/04/01 02:58:22;;;;;;;35.95;23.90;;;10.00;99.90;;;;;;5050827;28;20053;-78
2024/04/01 03:00:48;;;;;;;39.72;25.83;;;10.00;99.90;;;;;;5050891;28;20044;-78
2024/04/01 03:03:14;;;;;;;35.90;22.98;;;10.00;99.90;;;;;;5050552;28;20049;-78
2024/04/01 03:05:40;;;;;;;32.40;23.25;;;10.00;99.90;;;;;;5050525;28;20116;-78
2024/04/01 03:08:09;;;;;;;38.60;24.75;;;10.00;99.90;;;;;;5050323;28;20095;-78
2024/04/01 03:10:35;;;;;;;38.47;24.02;;;10.00;99.90;;;;;;5050161;28;20041;-78
2024/04/01 03:13:05;;;;;;;36.95;23.85;;;10.00;99.90;;;;;;5033611;28;20439;-78
2024/04/01 03:15:31;;;;;;;33.33;22.48;;;9.90;99.90;;;;;;5052336;28;20084;-78
2024/04/01 03:17:58;;;;;;;34.53;23.38;;;9.90;99.90;;;;;;5053249;28;20043;-78
2024/04/01 03:20:24;;;;;;;30.95;22.40;;;9.90;99.90;;;;;;5052482;28;20077;-78
2024/04/01 03:22:49;;;;;;;33.28;22.35;;;9.90;99.90;;;;;;5051590;28;20071;-78
2024/04/01 03:25:15;;;;;;;32.25;22.67;;;9.90;99.90;;;;;;5050829;28;20040;-78
2024/04/01 03:27:41;;;;;;;32.55;23.33;;;9.90;99.90;;;;;;5037822;28;20067;-78
2024/04/01 03:30:09;;;;;;;36.50;22.88;;;9.90;99.90;;;;;;5053748;28;20041;-78
2024/04/01 03:32:35;;;;;;;34.67;23.65;;;9.90;99.90;;;;;;5054981;28;20047;-78
2024/04/01 03:35:01;;;;;;;34.47;22.80;;;9.90;99.90;;;;;;5053994;28;20048;-78
2024/04/01 03:37:27;;;;;;;32.70;22.42;;;9.90;99.90;;;;;;5037368;28;20068;-78
2024/04/01 03:39:52;;;;;;;37.67;23.08;;;9.90;99.90;;;;;;5054200;28;20476;-78
2024/04/01 03:42:18;;;;;;;37.00;23.48;;;9.90;99.90;;;;;;5053462;28;20160;-78
2024/04/01 03:44:44;;;;;;;34.72;22.45;;;9.90;99.90;;;;;;5053290;28;20049;-78
2024/04/01 03:47:10;;;;;;;36.45;23.20;;;9.90;99.90;;;;;;5053182;28;20044;-78
2024/04/01 03:49:37;;;;;;;29.92;21.60;;;9.80;99.90;;;;;;5052681;28;20047;-78
2024/04/01 03:52:03;;;;;;;31.38;21.20;;;9.80;99.90;;;;;;5052795;28;20120;-78
2024/04/01 03:54:29;;;;;;;32.70;21.52;;;9.80;99.90;;;;;;5053499;28;20041;-78
2024/04/01 03:56:54;;;;;;;30.85;21.77;;;9.70;99.90;;;;;;5037294;28;20055;-78
2024/04/01 03:59:20;;;;;;;33.00;22.55;;;9.70;99.90;;;;;;5052397;28;20040;-78
2024/04/01 04:01:45;;;;;;;33.33;23.80;;;9.80;99.90;;;;;;5051973;28;20098;-78
2024/04/01 04:04:11;;;;;;;37.72;24.65;;;9.70;99.90;;;;;;5053374;28;20439;-78
2024/04/01 04:06:40;;;;;;;34.65;24.38;;;9.60;99.90;;;;;;5054043;28;20395;-78
2024/04/01 04:09:15;;;;;;;37.33;25.08;;;9.60;99.90;;;;;;5053632;28;20037;-78
2024/04/01 04:11:54;;;;;;;39.22;25.45;;;9.60;99.90;;;;;;5053683;28;20037;-78
2024/04/01 04:14:26;;;;;;;36.30;24.67;;;9.60;99.90;;;;;;5045862;28;20556;-78
2024/04/01 04:16:52;;;;;;;35.83;24.98;;;9.60;99.90;;;;;;5053742;28;20033;-78
2024/04/01 04:19:18;;;;;;;37.03;24.92;;;9.60;99.90;;;;;;5055035;28;20048;-78
2024/04/01 04:21:45;;;;;;;34.17;24.52;;;9.50;99.90;;;;;;5051410;28;20048;-78
2024/04/01 04:24:11;;;;;;;37.10;24.13;;;9.50;99.90;;;;;;5054729;28;20048;-78
2024/04/01 04:26:37;;;;;;;39.70;24.67;;;9.40;99.90;;;;;;5054091;28;20037;-78
2024/04/01 04:29:03;;;;;;;33.67;23.23;;;9.40;99.90;;;;;;5032981;28;20051;-80
2024/04/01 04:31:30;;;;;;;35.08;24.13;;;9.40;99.90;;;;;;5053265;28;20521;-79
2024/04/01 04:33:56;;;;;;;36.72;24.08;;;9.40;99.90;;;;;;5048036;28;20490;-81
2024/04/01 04:36:23;;;;;;;37.30;24.30;;;9.40;99.90;;;;;;5053011;28;20147;-81
2024/04/01 04:38:48;;;;;;;34.38;23.83;;;9.50;99.90;;;;;;5050847;28;20037;-81
2024/04/01 04:41:17;;;;;;;33.63;24.38;;;9.50;99.90;;;;;;5052916;28;20053;-80
2024/04/01 04:43:46;;;;;;;35.53;23.17;;;9.70;99.90;;;;;;5052382;28;20095;-79
2024/04/01 04:46:12;;;;;;;28.30;21.67;;;9.50;99.90;;;;;;5053570;28;20037;-79
2024/04/01 04:48:45;;;;;;;33.92;23.02;;;9.50;99.90;;;;;;5035916;28;20159;-83
2024/04/01 04:51:11;;;;;;;;;;;9.50;99.90;;;;;;5052951;28;20068;-81
2024/04/01 04:53:37;;;;;;;36.03;24.00;;;9.50;99.90;;;;;;5051795;28;20290;-79
2024/04/01 04:56:06;;;;;;;32.83;22.73;;;9.40;99.90;;;;;;5052277;28;20048;-81
2024/04/01 04:58:32;;;;;;;33.70;22.73;;;9.40;99.90;;;;;;5056914;28;20059;-80
2024/04/01 05:00:58;;;;;;;30.70;22.83;;;9.40;99.90;;;;;;5055305;28;20125;-79
2024/04/01 05:03:23;;;;;;;36.05;23.27;;;9.40;99.90;;;;;;5056314;28;20183;-80
2024/04/01 05:05:49;;;;;;;33.90;23.40;;;9.60;99.90;;;;;;5052062;28;20040;-81
2024/04/01 05:08:15;;;;;;;30.45;23.50;;;9.40;99.90;;;;;;5051240;28;20072;-79
2024/04/01 05:10:42;;;;;;;31.33;23.08;;;9.40;99.90;;;;;;5058048;28;20051;-80
2024/04/01 05:13:08;;;;;;;31.70;22.95;;;9.40;99.90;;;;;;5055053;28;20068;-79
2024/04/01 05:15:36;;;;;;;31.38;22.92;;;9.40;99.90;;;;;;5052884;28;20394;-79
2024/04/01 05:18:03;;;;;;;31.52;23.70;;;9.40;99.90;;;;;;5047532;28;20593;-79
2024/04/01 05:20:29;;;;;;;30.27;23.83;;;9.40;99.90;;;;;;5053319;28;20044;-79
2024/04/01 05:22:55;;;;;;;29.52;22.55;;;9.40;99.90;;;;;;5051660;28;20516;-81
2024/04/01 05:25:21;;;;;;;33.08;23.25;;;9.40;99.90;;;;;;5051740;28;20523;-79
2024/04/01 05:27:46;;;;;;;36.40;25.02;;;9.40;99.90;;;;;;5051594;28;20041;-79
2024/04/01 05:30:14;;;;;;;34.33;24.33;;;9.40;99.90;;;;;;5051328;28;20048;-82
2024/04/01 05:32:39;;;;;;;35.92;24.85;;;9.50;99.90;;;;;;5050622;28;20068;-79
2024/04/01 05:35:05;;;;;;;32.78;24.50;;;9.40;99.90;;;;;;5048670;28;20076;-79
2024/04/01 05:37:34;;;;;;;31.70;23.92;;;9.40;99.90;;;;;;5048913;28;20390;-80
2024/04/01 05:40:00;;;;;;;33.28;24.63;;;9.50;99.90;;;;;;5050836;28;20045;-82
2024/04/01 05:42:26;;;;;;;34.20;25.02;;;9.40;99.90;;;;;;5047570;28;20059;-79
2024/04/01 05:44:52;;;;;;;33.35;24.75;;;9.40;99.90;;;;;;5048090;28;20120;-79
2024/04/01 05:47:17;;;;;;;34.33;24.92;;;9.40;99.90;;;;;;5051336;28;20033;-79
2024/04/01 05:49:43;;;;;;;33.85;24.38;;;9.40;99.90;;;;;;5045724;28;20052;-80
2024/04/01 05:52:09;;;;;;;31.85;24.08;;;9.50;99.90;;;;;;5051220;28;20040;-80
2024/04/01 05:54:35;;;;;;;35.90;24.30;;;9.50;99.90;;;;;;5033956;28;20509;-80
2024/04/01 05:57:01;;;;;;;31.88;23.45;;;9.50;99.90;;;;;;5050619;28;20040;-80
2024/04/01 05:59:28;;;;;;;33.38;25.17;;;9.50;99.90;;;;;;5052166;28;20403;-81
2024/04/01 06:01:55;;;;;;;34.60;24.48;;;9.60;99.90;;;;;;5052260;28;20108;-79
2024/04/01 06:04:21;;;;;;;31.05;23.85;;;9.60;99.90;;;;;;5052025;28;20037;-81
2024/04/01 06:06:47;;;;;;;34.67;24.25;;;9.50;99.90;;;;;;5046784;28;20041;-81
2024/04/01 06:09:13;;;;;;;34.08;23.92;;;9.70;99.90;;;;;;5049049;28;20132;-82
2024/04/01 06:11:39;;;;;;;33.17;23.85;;;9.60;99.90;;;;;;5048866;28;20024;-80
2024/04/01 06:14:05;;;;;;;33.38;23.55;;;9.60;99.90;;;;;;5050074;28;20102;-80
2024/04/01 06:16:31;;;;;;;28.20;23.15;;;9.60;99.90;;;;;;5049936;28;20131;-81
2024/04/01 06:18:56;;;;;;;30.77;22.52;;;9.80;99.90;;;;;;5051815;28;20041;-81
2024/04/01 06:21:22;;;;;;;28.42;21.35;;;9.60;99.90;;;;;;5051768;28;20486;-80
2024/04/01 06:23:48;;;;;;;27.42;21.88;;;9.70;99.90;;;;;;5059747;28;20037;-81
2024/04/01 06:26:13;;;;;;;29.42;22.48;;;9.70;99.90;;;;;;5049396;28;20044;-78
2024/04/01 06:28:39;;;;;;;26.83;21.30;;;9.70;99.90;;;;;;5050200;28;20037;-80
2024/04/01 06:31:05;;;;;;;29.00;22.15;;;9.90;99.90;;;;;;5056930;28;20037;-81
2024/04/01 06:33:33;;;;;;;27.80;22.58;;;9.70;99.90;;;;;;5045177;28;20045;-79
2024/04/01 06:36:03;;;;;;;31.17;21.60;;;9.80;99.90;;;;;;5031961;28;20048;-80
2024/04/01 06:38:29;;;;;;;30.40;22.02;;;9.80;99.90;;;;;;5049798;28;20045;-80
2024/04/01 06:40:58;;;;;;;28.40;22.33;;;9.80;99.90;;;;;;5031812;28;20491;-82
2024/04/01 06:43:24;;;;;;;26.88;21.48;;;9.90;99.90;;;;;;5051581;28;20094;-80
2024/04/01 06:45:57;;;;;;;30.98;22.35;;;9.90;99.90;;;;;;5050926;28;20048;-81
2024/04/01 06:48:24;;;;;;;31.85;21.95;;;9.90;99.90;;;;;;5050850;28;20037;-81
2024/04/01 06:50:50;;;;;;;30.58;22.50;;;10.10;99.90;;;;;;5053230;28;20179;-79
2024/04/01 06:53:19;;;;;;;26.52;21.08;;;10.00;99.90;;;;;;5052255;28;20075;-79
2024/04/01 06:55:45;;;;;;;29.05;21.52;;;10.00;99.90;;;;;;5055134;28;20066;-82
2024/04/01 06:58:12;;;;;;;31.13;21.38;;;10.00;99.90;;;;;;5051559;28;20645;-80
2024/04/01 07:00:38;;;;;;;29.20;21.92;;;10.10;99.90;;;;;;5055055;28;20048;-80
2024/04/01 07:03:04;;;;;;;27.45;21.25;;;10.10;99.90;;;;;;5054634;28;20067;-80
2024/04/01 07:05:30;;;;;;;26.98;20.50;;;10.10;99.90;;;;;;5052198;28;20045;-82
2024/04/01 07:07:57;;;;;;;31.15;20.88;;;10.20;99.90;;;;;;5044228;28;20107;-79
2024/04/01 07:10:22;;;;;;;24.77;20.88;;;10.20;99.90;;;;;;5049482;28;20045;-79
2024/04/01 07:12:48;;;;;;;27.63;21.17;;;10.20;99.90;;;;;;5051229;28;20083;-80
2024/04/01 07:15:14;;;;;;;31.45;21.10;;;10.30;99.90;;;;;;5045748;28;20068;-81
2024/04/01 07:17:42;;;;;;;28.35;21.15;;;10.40;99.90;;;;;;5047274;28;20041;-80
2024/04/01 07:20:09;;;;;;;29.38;20.65;;;10.40;99.90;;;;;;5048570;28;20044;-79
2024/04/01 07:22:35;;;;;;;25.88;20.13;;;10.40;99.90;;;;;;5041682;28;20066;-81
2024/04/01 07:25:01;;;;;;;29.08;19.92;;;10.50;99.90;;;;;;5049504;28;20044;-80
2024/04/01 07:27:27;;;;;;;28.13;20.65;;;10.50;99.90;;;;;;5052366;28;20076;-79
2024/04/01 07:29:52;;;;;;;25.98;20.25;;;10.40;99.90;;;;;;5048954;28;20512;-78
2024/04/01 07:32:18;;;;;;;26.02;19.63;;;10.50;99.90;;;;;;5046689;28;20119;-78
2024/04/01 07:34:44;;;;;;;26.63;21.05;;;10.50;99.90;;;;;;5049181;28;20377;-79
2024/04/01 07:37:13;;;;;;;30.27;21.30;;;10.50;99.90;;;;;;5050345;28;20055;-80
2024/04/01 07:39:39;;;;;;;29.75;20.42;;;10.50;99.90;;;;;;5048110;28;20405;-79
2024/04/01 07:42:05;;;;;;;24.10;19.98;;;10.50;99.90;;;;;;5052020;28;20048;-80
2024/04/01 07:44:31;;;;;;;26.77;20.50;;;10.50;99.90;;;;;;5049254;28;20045;-79
2024/04/01 07:46:56;;;;;;;29.33;20.55;;;10.60;99.90;;;;;;5054661;28;20234;-79
2024/04/01 07:49:22;;;;;;;29.90;20.55;;;10.50;99.90;;;;;;5056063;28;20045;-80
2024/04/01 07:51:47;;;;;;;25.63;19.50;;;10.50;99.90;;;;;;5050661;28;20033;-81
2024/04/01 07:54:13;;;;;;;27.70;20.20;;;10.60;99.90;;;;;;5040808;28;20044;-78
2024/04/01 07:56:38;;;;;;;30.60;20.90;;;10.50;99.90;;;;;;5051562;28;20094;-78
2024/04/01 07:59:04;;;;;;;27.70;19.10;;;10.50;99.90;;;;;;5052214;28;20068;-79
2024/04/01 08:01:30;;;;;;;28.08;19.27;;;10.60;99.90;;;;;;5049328;28;20039;-79
2024/04/01 08:03:56;;;;;;;25.70;21.05;;;10.50;99.90;;;;;;5058626;28;20048;-79
2024/04/01 08:06:21;;;;;;;25.63;20.05;;;10.50;99.90;;;;;;5055197;28;20036;-79
2024/04/01 08:08:47;;;;;;;27.98;20.15;;;10.50;99.90;;;;;;5054131;28;20086;-79
2024/04/01 08:11:13;;;;;;;27.38;19.80;;;10.50;99.90;;;;;;5052776;28;20091;-79
2024/04/01 08:13:38;;;;;;;24.27;19.40;;;10.50;99.90;;;;;;5054018;28;20119;-78
2024/04/01 08:16:05;;;;;;;24.23;20.00;;;10.60;99.90;;;;;;5054093;28;20037;-78
2024/04/01 08:18:30;;;;;;;30.50;19.52;;;10.60;99.90;;;;;;5052489;28;20131;-79
2024/04/01 08:20:58;;;;;;;26.40;19.35;;;10.60;99.90;;;;;;5035127;28;20703;-79
2024/04/01 08:23:24;;;;;;;25.52;20.25;;;10.60;99.90;;;;;;5044918;28;20053;-78
2024/04/01 08:25:49;;;;;;;29.50;19.95;;;10.60;99.90;;;;;;5044029;28;20553;-78
2024/04/01 08:28:15;;;;;;;27.23;20.80;;;10.60;99.90;;;;;;5046547;28;20119;-78
2024/04/01 08:30:41;;;;;;;32.88;22.65;;;10.60;99.90;;;;;;5052011;28;20048;-78
2024/04/01 08:33:07;;;;;;;41.15;28.77;;;10.70;99.90;;;;;;5051560;28;20028;-79
2024/04/01 08:35:32;;;;;;;40.80;28.17;;;10.60;99.90;;;;;;5051577;28;20460;-78
2024/04/01 08:37:58;;;;;;;38.92;27.15;;;10.60;99.90;;;;;;5037487;28;20041;-79
2024/04/01 08:40:23;;;;;;;33.47;24.10;;;10.50;99.90;;;;;;5048530;28;20142;-79
2024/04/01 08:42:54;;;;;;;34.13;24.80;;;10.50;99.90;;;;;;5053929;28;20037;-80
2024/04/01 08:45:21;;;;;;;38.10;26.65;;;10.70;99.90;;;;;;5053893;28;20037;-80
2024/04/01 08:47:50;;;;;;;43.25;29.92;;;10.50;99.90;;;;;;5048490;28;20091;-79
2024/04/01 08:50:23;;;;;;;44.17;30.95;;;10.50;99.90;;;;;;5052514;28;20045;-80
2024/04/01 08:52:53;;;;;;;39.95;27.60;;;10.60;99.90;;;;;;5052504;28;20037;-84
2024/04/01 08:55:20;;;;;;;31.30;24.42;;;10.60;99.90;;;;;;5054060;28;20041;-79
2024/04/01 08:57:47;;;;;;;30.15;22.65;;;10.60;99.90;;;;;;5052161;28;20048;-77
2024/04/01 09:00:13;;;;;;;30.10;22.95;;;10.60;99.90;;;;;;5047564;28;20045;-79
2024/04/01 09:02:39;;;;;;;29.67;21.42;;;10.50;99.90;;;;;;5051153;28;20045;-79
2024/04/01 09:05:05;;;;;;;24.48;19.75;;;10.50;99.90;;;;;;5051687;28;20029;-79
2024/04/01 09:07:31;;;;;;;24.75;20.80;;;10.50;99.90;;;;;;5050503;28;20045;-78
2024/04/01 09:09:57;;;;;;;28.50;20.48;;;10.70;99.90;;;;;;5051705;28;20509;-79
2024/04/01 09:12:23;;;;;;;26.10;20.70;;;10.50;99.90;;;;;;5051974;28;20045;-79
2024/04/01 09:14:49;;;;;;;23.95;17.80;;;10.50;99.90;;;;;;5050036;28;20033;-78
2024/04/01 09:17:26;;;;;;;26.42;18.65;;;10.60;99.90;;;;;;5051061;28;20095;-79
2024/04/01 09:19:52;;;;;;;24.35;18.38;;;10.60;99.90;;;;;;5050779;28;20525;-79
2024/04/01 09:22:18;;;;;;;23.58;17.73;;;10.60;99.90;;;;;;5052381;28;20082;-79
2024/04/01 09:24:46;;;;;;;20.85;16.45;;;10.60;99.90;;;;;;5051823;28;20041;-79
2024/04/01 09:27:12;;;;;;;19.73;15.27;;;10.60;99.90;;;;;;5050655;28;20052;-78
2024/04/01 09:29:38;;;;;;;19.65;14.60;;;10.50;99.90;;;;;;5052276;28;20040;-78
2024/04/01 09:32:04;;;;;;;17.80;14.57;;;10.90;99.90;;;;;;5053437;28;20061;-79
2024/04/01 09:34:31;;;;;;;22.52;15.02;;;10.60;99.90;;;;;;5050726;28;20076;-78
2024/04/01 09:36:57;;;;;;;19.20;14.77;;;10.70;99.90;;;;;;5050159;28;20103;-79
2024/04/01 09:39:25;;;;;;;21.25;14.52;;;10.60;99.90;;;;;;5056955;28;20426;-79
2024/04/01 09:41:50;;;;;;;19.60;14.32;;;10.70;99.90;;;;;;5051318;28;20140;-78
2024/04/01 09:44:17;;;;;;;21.30;13.85;;;10.80;99.90;;;;;;5051771;28;20561;-78
2024/04/01 09:46:43;;;;;;;20.95;14.00;;;10.70;99.90;;;;;;5050374;28;20472;-79
2024/04/01 09:49:11;;;;;;;22.20;13.88;;;10.80;99.90;;;;;;5051644;28;20436;-79
2024/04/01 09:51:37;;;;;;;20.17;13.98;;;10.80;99.90;;;;;;5047194;28;20080;-78
2024/04/01 09:54:03;;;;;;;17.65;13.93;;;10.90;99.90;;;;;;5051682;28;20072;-78
2024/04/01 09:56:37;;;;;;;18.70;14.38;;;10.90;99.90;;;;;;5046080;28;20563;-78
2024/04/01 09:59:41;;;;;;;19.50;13.77;;;11.00;99.90;;;;;;5048358;28;20052;-78
2024/04/01 10:02:29;;;;;;;19.77;13.48;;;11.00;99.90;;;;;;5032322;28;20036;-79
2024/04/01 10:05:12;;;;;;;16.95;13.38;;;11.10;99.90;;;;;;5049917;28;20071;-78
2024/04/01 10:07:41;;;;;;;20.55;13.43;;;11.10;99.90;;;;;;5050990;28;20102;-79
2024/04/01 10:10:22;;;;;;;17.83;13.27;;;11.20;99.90;;;;;;5050913;28;20533;-78
2024/04/01 10:13:20;;;;;;;19.38;12.70;;;11.20;99.90;;;;;;5050149;28;20048;-78
2024/04/01 10:15:56;;;;;;;18.20;12.27;;;11.20;99.90;;;;;;5050275;28;20094;-78
2024/04/01 10:18:43;;;;;;;16.27;11.20;;;11.40;99.90;;;;;;5050390;28;20040;-79
2024/04/01 10:21:18;;;;;;;15.82;12.95;;;11.40;99.90;;;;;;5049827;28;20049;-78
2024/04/01 10:24:23;;;;;;;21.05;13.75;;;11.50;99.90;;;;;;5044633;28;20059;-79
2024/04/01 10:27:10;;;;;;;17.80;14.57;;;11.50;99.90;;;;;;5021395;28;20517;-79
2024/04/01 10:30:27;;;;;;;19.55;14.85;;;11.50;99.90;;;;;;5050960;28;20167;-78
2024/04/01 10:33:16;;;;;;;20.92;16.15;;;11.50;99.90;;;;;;5024703;28;20486;-78
2024/04/01 10:36:03;;;;;;;22.42;16.13;;;11.50;99.90;;;;;;5044856;28;20055;-78
2024/04/01 10:39:11;;;;;;;19.67;16.23;;;11.50;99.90;;;;;;5049598;28;20045;-78
2024/04/01 10:42:25;;;;;;;18.85;14.80;;;11.40;99.90;;;;;;5051232;28;20040;-78
2024/04/01 10:45:17;;;;;;;20.98;16.27;;;11.40;99.90;;;;;;4997864;28;20141;-78
2024/04/01 10:48:01;;;;;;;;;;;11.30;99.90;;;;;;5046321;28;20048;-79
2024/04/01 10:50:45;;;;;;;22.90;16.60;;;11.30;99.90;;;;;;5049929;28;19916;-79
2024/04/01 10:53:35;;;;;;;22.33;16.45;;;11.30;99.90;;;;;;5049057;28;20049;-79
2024/04/01 10:56:25;;;;;;;22.30;16.52;;;11.30;99.90;;;;;;5051505;28;20076;-79
2024/04/01 10:59:27;;;;;;;18.25;14.80;;;11.30;99.90;;;;;;5051270;28;20060;-79
2024/04/01 11:02:25;;;;;;;18.08;14.20;;;11.30;99.90;;;;;;5030104;28;20048;-79
2024/04/01 11:05:44;;;;;;;17.27;14.27;;;11.30;99.90;;;;;;5049919;28;20099;-78
2024/04/01 11:08:34;;;;;;;18.05;13.95;;;11.30;99.90;;;;;;5012282;28;20188;-79
2024/04/01 11:11:27;;;;;;;20.00;14.50;;;11.20;99.90;;;;;;5033498;28;20464;-77
2024/04/01 11:13:53;;;;;;;;;;;11.20;99.90;;;;;;5052286;28;20416;-77
2024/04/01 11:16:22;;;;;;;18.45;14.75;;;11.20;99.90;;;;;;5038488;28;19917;-77
2024/04/01 11:19:09;;;;;;;18.15;14.88;;;11.20;99.90;;;;;;5053649;28;20551;-77
2024/04/01 11:22:03;;;;;;;18.70;14.00;;;11.20;99.90;;;;;;5050823;28;20413;-77
2024/04/01 11:24:33;;;;;;;16.08;13.32;;;11.30;99.90;;;;;;5051261;28;20055;-77
2024/04/01 11:27:04;;;;;;;17.58;13.75;;;11.30;99.90;;;;;;5050501;28;20433;-77
2024/04/01 11:29:48;;;;;;;16.63;12.98;;;11.30;99.90;;;;;;5051189;28;20048;-78
2024/04/01 11:32:20;;;;;;;14.27;11.20;;;11.30;99.90;;;;;;5050693;28;20498;-77
2024/04/01 11:34:59;;;;;;;15.02;11.10;;;11.30;99.90;;;;;;5049502;28;20051;-77
2024/04/01 11:37:33;;;;;;;15.90;11.30;;;11.20;99.90;;;;;;5045288;28;20049;-78
2024/04/01 11:40:04;;;;;;;16.48;11.27;;;11.20;99.90;;;;;;5052185;28;20432;-78
2024/04/01 11:42:31;;;;;;;14.20;10.60;;;11.20;99.90;;;;;;5054905;28;20045;-78
2024/04/01 11:45:00;;;;;;;15.55;11.27;;;11.10;99.90;;;;;;5055807;28;20087;-78
2024/04/01 11:47:26;;;;;;;15.88;11.45;;;11.20;99.90;;;;;;5057548;28;20053;-78
2024/04/01 11:49:52;;;;;;;17.38;11.13;;;11.20;99.90;;;;;;5053500;28;20032;-78
2024/04/01 11:52:20;;;;;;;16.25;11.30;;;11.20;99.90;;;;;;5055424;28;20132;-78
2024/04/01 11:54:46;;;;;;;15.82;10.40;;;11.40;99.90;;;;;;5055008;28;20091;-78
2024/04/01 11:57:25;;;;;;;14.85;9.73;;;11.40;99.90;;;;;;5054412;28;20040;-78
2024/04/01 12:00:02;;;;;;;11.50;8.88;;;11.00;99.90;;;;;;5053732;28;20041;-78
2024/04/01 12:02:28;;;;;;;13.60;9.57;;;11.40;99.90;;;;;;5056129;28;20075;-78
2024/04/01 12:05:03;;;;;;;12.55;10.45;;;11.40;99.90;;;;;;5053556;28;20045;-78
2024/04/01 12:07:29;;;;;;;12.57;9.50;;;11.50;99.90;;;;;;5053640;28;20551;-78
2024/04/01 12:09:55;;;;;;;12.93;9.60;;;11.40;99.90;;;;;;5053119;28;20051;-78
2024/04/01 12:12:21;;;;;;;13.43;9.55;;;11.40;99.90;;;;;;5054914;28;20115;-78
2024/04/01 12:14:47;;;;;;;12.68;9.27;;;11.50;99.90;;;;;;5053754;28;20120;-78
2024/04/01 12:17:12;;;;;;;12.70;9.75;;;11.40;99.90;;;;;;5053505;28;20550;-78
2024/04/01 12:19:38;;;;;;;12.50;9.70;;;11.50;99.90;;;;;;5052511;28;20068;-78
2024/04/01 12:22:04;;;;;;;12.80;9.10;;;11.40;99.90;;;;;;5054359;28;20045;-77
2024/04/01 12:24:32;;;;;;;12.27;8.88;;;11.40;99.90;;;;;;5054883;28;20124;-78
2024/04/01 12:27:02;;;;;;;13.25;8.35;;;11.50;99.90;;;;;;5049479;28;20113;-78
2024/04/01 12:29:31;;;;;;;11.35;8.50;;;11.60;99.90;;;;;;5053496;28;20049;-78
2024/04/01 12:31:57;;;;;;;11.95;8.27;;;11.60;99.90;;;;;;5054798;28;20375;-78
2024/04/01 12:34:24;;;;;;;12.60;8.25;;;11.60;99.90;;;;;;5053390;28;20086;-78
2024/04/01 12:36:52;;;;;;;11.70;8.32;;;11.70;99.90;;;;;;5034710;28;20094;-78
2024/04/01 12:39:18;;;;;;;10.30;7.88;;;11.70;99.90;;;;;;5053773;28;20099;-78